METAR Data
IDs: Format: Raw Decoded Include TAF

Data at: 2050 UTC 17 Jun 2019

Region: TOP
KATL 171952Z 19008KT 10SM FEW040CB SCT050TCU SCT250 32/19 A3002 RMK AO2 SLP155 CB SW DSNT SW MOV NE TCU ALQDS SHRA VC SW T03170189

KBOS 171954Z 12006KT 10SM FEW045 BKN200 BKN250 20/12 A2998 RMK AO2 SLP150 T02000117

KBWI 172041Z 10004KT 10SM -TSRA SCT060CB BKN100 BKN160 BKN250 28/23 A2993 RMK AO2 RAE17B41 TSE17B41 OCNL LTGCCCG OHD TS OHD MOV E P0000 T02780228

KCLE 171951Z 35006KT 10SM OVC200 21/17 A3002 RMK AO2 SLP163 T02060172

KCLT 171952Z 22010KT 10SM FEW045 SCT250 33/19 A3002 RMK AO2 SLP157 CB DSNT SE AND NW TCU DSNT SE AND NW-N T03280189

KCVG 171952Z 18010KT 9SM FEW020 SCT075 BKN150 OVC250 26/21 A2997 RMK AO2 SLP137 ACC E MDT CU DSNT N-NE T02610211

KDCA 172029Z 19007KT 10SM TS SCT048CB BKN065 BKN080 BKN250 31/21 A2995 RMK AO2 LTG DSNT N AND NE AND S TSB29 FRQ LTGICCG VC N-NE TS N-NE MOV SE T03110211

KDEN 171953Z 05005KT 10SM FEW030 SCT060 BKN110 21/12 A3007 RMK AO2 SLP121 T02110117

KDFW 171953Z 00000KT 10SM SCT037 BKN300 29/19 A2992 RMK AO2 SLP123 T02890189

KDTW 171953Z 12003KT 10SM OVC031 21/12 A3001 RMK AO2 SLP160 T02110122

KEWR 171951Z 32005KT 10SM -RA SCT022 BKN030 OVC043 24/19 A3000 RMK AO2 SLP157 SCT V BKN P0001 T02390194 $

KFLL 172044Z 29006KT 3SM TSRA BR FEW012 SCT024CB BKN060 22/21 A3006 RMK AO2 LTG DSNT W RAE1955B17 TSB27 OCNL LTGICCG NE-SE TS NE-SE MOV NE P0086 T02220211

KIAD 171952Z 32003KT 10SM SCT050 BKN190 BKN250 31/20 A2996 RMK AO2 SLP141 T03060200

KIAH 171953Z 13004KT 10SM FEW028 FEW150 BKN250 29/23 A2991 RMK AO2 SLP126 T02940228

KJFK 171951Z 17005KT 10SM -RA OVC038 22/19 A3000 RMK AO2 RAB26 SLP160 P0000 T02220194

KLAS 171956Z 00000KT 10SM SCT120 SCT250 34/07 A2984 RMK AO2 SLP077 ACC DSNT ALQDS T03390072

KLAX 171953Z 25008KT 9SM FEW015 OVC023 19/14 A2992 RMK AO2 SLP129 T01940139

KLGA 172025Z 04004KT 10SM OVC029 23/16 A2999 RMK AO2 T02330161

KMCO 172048Z 21004KT 4SM +TSRA BR FEW025 BKN033CB BKN100 OVC250 24/23 A3006 RMK AO2 WSHFT 1957 LTG DSNT N AND NW VIS N 2 1/2 FRQ LTGICCG OHD AND ALQDS TS OHD AND ALQDS MOV NW P0077

KMDW 171953Z 04007KT 9SM OVC020 20/14 A2999 RMK AO2 SLP153 T02000139

KMEM 172007Z 21008KT 10SM -RA FEW055 SCT080 BKN110 OVC180 28/22 A2992 RMK AO2 RAB07 P0000 T02780222 $

KMIA 172038Z 01004KT 10SM FEW023 SCT075 BKN160 OVC250 26/23 A3005 RMK AO2 LTG DSNT N-SE RAB15E31 TSE15B16 OCNL LTGIC DSNT NE TS MOV NE CB DSNT NW-NE-E MOV NE P0001 T02560228

KMSP 171953Z 29009KT 10SM FEW038 FEW085 OVC100 23/13 A2998 RMK AO2 SLP148 T02330128

KORD 171951Z 04007KT 10SM OVC020 19/13 A3000 RMK AO2 SLP156 T01940133

KPDX 171953Z 04004KT 10SM FEW025 SCT250 22/11 A3015 RMK AO2 SLP208 T02170111 PNO $

KPHL 171954Z 02008KT 7SM -RA FEW020 BKN037 BKN048 BKN250 22/22 A2998 RMK AO2 RAB39 SLP151 P0000 T02220217

KPHX 171951Z 14010G17KT 130V190 10SM FEW080 FEW100 SCT250 38/M01 A2977 RMK AO2 SLP058 FU FEW080 DSNT E T03781006

KPIT 171951Z 21005KT 10SM SCT024 BKN140 OVC230 24/19 A3000 RMK AO2 SLP157 T02390189

KSAN 171951Z 21008KT 10SM SCT014 OVC024 18/14 A2995 RMK AO2 SLP141 T01780139 $

KSEA 172018Z 17005KT 10SM SCT014 BKN250 18/12 A3017 RMK AO2 T01830117

KSFO 171956Z 03006KT 10SM FEW009 20/14 A2986 RMK AO2 SLP111 T02000139

KSLC 171954Z 28007KT 10SM FEW085 FEW130 BKN200 BKN250 28/09 A2997 RMK AO2 SLP097 VIRGA CB DSNT ALQDS T02780094 VISNO NW RNWY

KSTL 171951Z 04009KT 4SM -RA BR OVC005 23/21 A2994 RMK AO2 SLP130 P0000 T02280206

KTPA 171953Z 22006KT 10SM SCT036 BKN130 BKN250 29/23 A3000 RMK AO2 LTG DSNT N AND NE SLP159 CB DSNT NW-S T02890233 $